This is the latest recevied weather packets stored in our database for station/object DL4JCP-6. If no packets are shown the sender has not sent any weather packets the latest 10 day(s).
| Time | Temp. | Humidity | Pressure | Rain* | Wind** | Luminosity | Snow |
|---|---|---|---|---|---|---|---|
| 1778067327 | 15.56° C | 73% | 1007.7 hPa | 0 mm | - | - | - |
| 1778067191 | 15.56° C | 73% | 1007.7 hPa | 0 mm | - | - | - |
| 1778066728 | 15.56° C | 73% | 1007.7 hPa | 0 mm | - | - | - |
| 1778066427 | 15.56° C | 73% | 1007.6 hPa | 0 mm | - | - | - |
| 1778066127 | 15.56° C | 71% | 1007.8 hPa | 0 mm | - | - | - |
| 1778064928 | 15.56° C | 74% | 1007.9 hPa | 0 mm | - | - | - |
| 1778063728 | 15° C | 74% | 1007.8 hPa | 0 mm | - | - | - |
| 1778063427 | 15° C | 75% | 1007.8 hPa | 0 mm | - | - | - |
| 1778062527 | 14.44° C | 75% | 1007.8 hPa | 0 mm | - | - | - |
| 1778061927 | 15° C | 77% | 1007.9 hPa | 0 mm | - | - | - |
| 1778061791 | 15° C | 75% | 1008 hPa | 0 mm | - | - | - |
| 1778061627 | 15° C | 75% | 1008 hPa | 0 mm | - | - | - |
| 1778050994 | 12.22° C | 86% | 1006.6 hPa | 0 mm | - | - | - |
| 1778049194 | 11.11° C | 91% | 1007 hPa | 0 mm | - | - | - |
| 1778048295 | 11.11° C | 91% | 1007 hPa | 0 mm | - | - | - |
| 1778047395 | 11.11° C | 91% | 1006.7 hPa | 0 mm | - | - | - |
| 1778045593 | 10.56° C | 92% | 1006.7 hPa | 0 mm | - | - | - |
| 1778044707 | 10.56° C | 93% | 1006.5 hPa | 0 mm | - | - | - |
| 1778043794 | 10.56° C | 93% | 1006.7 hPa | 0 mm | - | - | - |
| 1778042894 | 10.56° C | 93% | 1006.7 hPa | 0 mm | - | - | - |
| 1778041993 | 10.56° C | 94% | 1006.4 hPa | 0 mm | - | - | - |
| 1778041094 | 10° C | 94% | 1006.4 hPa | 0 mm | - | - | - |
| 1778040196 | 9.44° C | 95% | 1006.2 hPa | 0 mm | - | - | - |
| 1778039293 | 10° C | 95% | 1006.2 hPa | 0 mm | - | - | - |
| 1778038393 | 9.44° C | 95% | 1006.2 hPa | 0 mm | - | - | - |
* Rain latest hour (hover to see other rain measurements)
** Current wind speed in m/s (hover to see current wind gust speed)